Sacramento, California
Traffic Map
Current Weather Conditions
Sacramento, California
Clear
Clear
61°
Feels Like: 61°
Wind Chill: 61° Ceiling: Unl
Heat Index: 61° Visibility: 10mi
Dew Point: 55° Wind: 5mph
Humidity: 81% Direction: 160° (SSE)
Pressure: 29.91in Gusts: 0mph
Raw Report DataKSAC 301153Z AUTO 16004KT 10SM CLR 16/13 A2991 RMK AO2 SLP129 T01610128 10178 20161 58005
Traffic Incident Summary
Active as of:
Severity:
Category:
InformationThere was an issue retrieving the traffic information for this location. Please try a different location or try again shortly.
Advertisements
Track Severe Weather on mobile